sensor_id;sensor_type;location;lat;lon;timestamp;P1;durP1;ratioP1;P2;durP2;ratioP2
35056;SDS011;21241;51.828;19.574;2023-04-24T00:02:26;13.60;;;12.50;;
35056;SDS011;21241;51.828;19.574;2023-04-24T00:04:54;13.70;;;12.70;;
35056;SDS011;21241;51.828;19.574;2023-04-24T00:07:22;14.40;;;13.30;;
35056;SDS011;21241;51.828;19.574;2023-04-24T00:09:49;15.70;;;14.50;;
35056;SDS011;21241;51.828;19.574;2023-04-24T00:12:17;16.10;;;14.90;;
35056;SDS011;21241;51.828;19.574;2023-04-24T00:14:45;15.40;;;14.10;;
35056;SDS011;21241;51.828;19.574;2023-04-24T00:17:13;14.60;;;13.30;;
35056;SDS011;21241;51.828;19.574;2023-04-24T00:19:41;15.50;;;14.20;;
35056;SDS011;21241;51.828;19.574;2023-04-24T00:22:09;15.60;;;14.40;;
35056;SDS011;21241;51.828;19.574;2023-04-24T00:24:38;15.30;;;14.10;;
35056;SDS011;21241;51.828;19.574;2023-04-24T00:27:06;15.60;;;14.40;;
35056;SDS011;21241;51.828;19.574;2023-04-24T00:29:34;15.50;;;14.20;;
35056;SDS011;21241;51.828;19.574;2023-04-24T00:32:02;14.70;;;13.50;;
35056;SDS011;21241;51.828;19.574;2023-04-24T00:34:30;14.70;;;13.60;;
35056;SDS011;21241;51.828;19.574;2023-04-24T00:36:59;15.20;;;14.00;;
35056;SDS011;21241;51.828;19.574;2023-04-24T00:39:27;15.30;;;14.10;;
35056;SDS011;21241;51.828;19.574;2023-04-24T00:41:55;16.90;;;15.60;;
35056;SDS011;21241;51.828;19.574;2023-04-24T00:44:24;18.30;;;16.60;;
35056;SDS011;21241;51.828;19.574;2023-04-24T00:46:51;17.60;;;16.10;;
35056;SDS011;21241;51.828;19.574;2023-04-24T00:49:22;16.70;;;15.30;;
35056;SDS011;21241;51.828;19.574;2023-04-24T00:51:50;16.00;;;14.80;;
35056;SDS011;21241;51.828;19.574;2023-04-24T00:54:18;17.70;;;16.20;;
35056;SDS011;21241;51.828;19.574;2023-04-24T00:56:46;17.10;;;15.70;;
35056;SDS011;21241;51.828;19.574;2023-04-24T00:59:16;16.90;;;15.50;;
35056;SDS011;21241;51.828;19.574;2023-04-24T01:01:44;14.50;;;13.40;;
35056;SDS011;21241;51.828;19.574;2023-04-24T01:04:12;14.90;;;13.80;;
35056;SDS011;21241;51.828;19.574;2023-04-24T01:06:41;15.00;;;13.90;;
35056;SDS011;21241;51.828;19.574;2023-04-24T01:09:10;14.10;;;13.10;;
35056;SDS011;21241;51.828;19.574;2023-04-24T01:11:40;14.50;;;13.50;;
35056;SDS011;21241;51.828;19.574;2023-04-24T01:14:11;13.70;;;12.80;;
35056;SDS011;21241;51.828;19.574;2023-04-24T01:16:39;14.30;;;13.20;;
35056;SDS011;21241;51.828;19.574;2023-04-24T01:19:08;14.20;;;13.00;;
35056;SDS011;21241;51.828;19.574;2023-04-24T01:21:37;14.80;;;13.70;;
35056;SDS011;21241;51.828;19.574;2023-04-24T01:24:05;16.90;;;15.70;;
35056;SDS011;21241;51.828;19.574;2023-04-24T01:26:34;19.10;;;17.60;;
35056;SDS011;21241;51.828;19.574;2023-04-24T01:29:01;16.00;;;14.80;;
35056;SDS011;21241;51.828;19.574;2023-04-24T01:31:29;14.60;;;13.50;;
35056;SDS011;21241;51.828;19.574;2023-04-24T01:33:58;14.90;;;13.50;;
35056;SDS011;21241;51.828;19.574;2023-04-24T01:36:26;14.70;;;13.50;;
35056;SDS011;21241;51.828;19.574;2023-04-24T01:38:54;15.10;;;13.80;;
35056;SDS011;21241;51.828;19.574;2023-04-24T01:41:22;16.70;;;15.50;;
35056;SDS011;21241;51.828;19.574;2023-04-24T01:43:51;13.60;;;12.50;;
35056;SDS011;21241;51.828;19.574;2023-04-24T01:46:20;12.40;;;11.50;;
35056;SDS011;21241;51.828;19.574;2023-04-24T01:48:47;13.40;;;12.40;;
35056;SDS011;21241;51.828;19.574;2023-04-24T01:51:15;12.70;;;11.80;;
35056;SDS011;21241;51.828;19.574;2023-04-24T01:53:43;12.40;;;11.50;;
35056;SDS011;21241;51.828;19.574;2023-04-24T01:56:10;12.80;;;11.90;;
35056;SDS011;21241;51.828;19.574;2023-04-24T01:58:39;15.90;;;14.80;;
35056;SDS011;21241;51.828;19.574;2023-04-24T02:01:06;13.00;;;12.10;;
35056;SDS011;21241;51.828;19.574;2023-04-24T02:03:35;13.50;;;12.60;;
35056;SDS011;21241;51.828;19.574;2023-04-24T02:06:03;10.50;;;9.70;;
35056;SDS011;21241;51.828;19.574;2023-04-24T02:08:31;11.00;;;10.10;;
35056;SDS011;21241;51.828;19.574;2023-04-24T02:10:59;10.90;;;10.00;;
35056;SDS011;21241;51.828;19.574;2023-04-24T02:13:29;10.50;;;9.70;;
35056;SDS011;21241;51.828;19.574;2023-04-24T02:15:58;10.30;;;9.60;;
35056;SDS011;21241;51.828;19.574;2023-04-24T02:18:26;10.50;;;9.70;;
35056;SDS011;21241;51.828;19.574;2023-04-24T02:20:54;10.40;;;9.60;;
35056;SDS011;21241;51.828;19.574;2023-04-24T02:23:21;9.40;;;8.60;;
35056;SDS011;21241;51.828;19.574;2023-04-24T02:25:49;10.00;;;9.20;;
35056;SDS011;21241;51.828;19.574;2023-04-24T02:28:17;9.90;;;9.10;;
35056;SDS011;21241;51.828;19.574;2023-04-24T02:30:45;10.20;;;9.30;;
35056;SDS011;21241;51.828;19.574;2023-04-24T02:33:14;9.80;;;8.90;;
35056;SDS011;21241;51.828;19.574;2023-04-24T02:35:42;9.80;;;9.00;;
35056;SDS011;21241;51.828;19.574;2023-04-24T02:38:10;9.80;;;9.00;;
35056;SDS011;21241;51.828;19.574;2023-04-24T02:40:38;10.10;;;9.30;;
35056;SDS011;21241;51.828;19.574;2023-04-24T02:43:06;9.40;;;8.70;;
35056;SDS011;21241;51.828;19.574;2023-04-24T02:45:34;9.70;;;8.90;;
35056;SDS011;21241;51.828;19.574;2023-04-24T02:48:03;10.30;;;9.50;;
35056;SDS011;21241;51.828;19.574;2023-04-24T02:50:31;11.20;;;10.20;;
35056;SDS011;21241;51.828;19.574;2023-04-24T02:53:01;11.70;;;10.80;;
35056;SDS011;21241;51.828;19.574;2023-04-24T02:55:29;13.80;;;12.80;;
35056;SDS011;21241;51.828;19.574;2023-04-24T02:57:56;13.60;;;12.70;;
35056;SDS011;21241;51.828;19.574;2023-04-24T03:00:24;14.60;;;13.50;;
35056;SDS011;21241;51.828;19.574;2023-04-24T03:02:52;15.50;;;14.30;;
35056;SDS011;21241;51.828;19.574;2023-04-24T03:05:21;16.30;;;15.00;;
35056;SDS011;21241;51.828;19.574;2023-04-24T03:07:49;15.90;;;14.60;;
35056;SDS011;21241;51.828;19.574;2023-04-24T03:10:17;16.60;;;15.40;;
35056;SDS011;21241;51.828;19.574;2023-04-24T03:12:45;18.10;;;16.70;;
35056;SDS011;21241;51.828;19.574;2023-04-24T03:15:12;18.60;;;17.20;;
35056;SDS011;21241;51.828;19.574;2023-04-24T03:17:40;16.90;;;15.60;;
35056;SDS011;21241;51.828;19.574;2023-04-24T03:20:08;17.00;;;15.80;;
35056;SDS011;21241;51.828;19.574;2023-04-24T03:22:37;17.30;;;16.00;;
35056;SDS011;21241;51.828;19.574;2023-04-24T03:25:06;16.50;;;15.30;;
35056;SDS011;21241;51.828;19.574;2023-04-24T03:27:36;17.10;;;15.90;;
35056;SDS011;21241;51.828;19.574;2023-04-24T03:30:34;16.20;;;14.90;;
35056;SDS011;21241;51.828;19.574;2023-04-24T03:33:02;17.00;;;15.50;;
35056;SDS011;21241;51.828;19.574;2023-04-24T03:35:33;16.40;;;15.10;;
35056;SDS011;21241;51.828;19.574;2023-04-24T03:38:03;15.50;;;14.30;;
35056;SDS011;21241;51.828;19.574;2023-04-24T03:40:39;15.60;;;14.40;;
35056;SDS011;21241;51.828;19.574;2023-04-24T03:43:16;15.50;;;14.30;;
35056;SDS011;21241;51.828;19.574;2023-04-24T03:45:44;14.60;;;13.40;;
35056;SDS011;21241;51.828;19.574;2023-04-24T03:48:13;14.80;;;13.70;;
35056;SDS011;21241;51.828;19.574;2023-04-24T03:50:41;13.70;;;12.60;;
35056;SDS011;21241;51.828;19.574;2023-04-24T03:53:10;13.30;;;12.10;;
35056;SDS011;21241;51.828;19.574;2023-04-24T03:55:39;13.50;;;12.50;;
35056;SDS011;21241;51.828;19.574;2023-04-24T03:58:07;13.50;;;12.40;;
35056;SDS011;21241;51.828;19.574;2023-04-24T04:00:35;12.00;;;11.10;;
35056;SDS011;21241;51.828;19.574;2023-04-24T04:03:23;12.70;;;11.60;;
35056;SDS011;21241;51.828;19.574;2023-04-24T04:05:53;11.30;;;10.50;;
35056;SDS011;21241;51.828;19.574;2023-04-24T04:08:21;12.40;;;11.40;;
35056;SDS011;21241;51.828;19.574;2023-04-24T04:10:49;12.80;;;11.70;;
35056;SDS011;21241;51.828;19.574;2023-04-24T04:13:16;11.60;;;10.70;;
35056;SDS011;21241;51.828;19.574;2023-04-24T04:15:44;11.60;;;10.60;;
35056;SDS011;21241;51.828;19.574;2023-04-24T04:18:13;12.00;;;10.90;;
35056;SDS011;21241;51.828;19.574;2023-04-24T04:20:41;11.50;;;10.60;;
35056;SDS011;21241;51.828;19.574;2023-04-24T04:23:09;11.90;;;11.00;;
35056;SDS011;21241;51.828;19.574;2023-04-24T04:25:54;11.30;;;10.30;;
35056;SDS011;21241;51.828;19.574;2023-04-24T04:28:24;11.20;;;10.40;;
35056;SDS011;21241;51.828;19.574;2023-04-24T04:30:52;11.00;;;10.10;;
35056;SDS011;21241;51.828;19.574;2023-04-24T04:33:21;11.40;;;10.40;;
35056;SDS011;21241;51.828;19.574;2023-04-24T04:35:49;11.00;;;10.20;;
35056;SDS011;21241;51.828;19.574;2023-04-24T04:38:20;11.70;;;10.70;;
35056;SDS011;21241;51.828;19.574;2023-04-24T04:41:10;11.40;;;10.50;;
35056;SDS011;21241;51.828;19.574;2023-04-24T04:43:38;11.50;;;10.60;;
35056;SDS011;21241;51.828;19.574;2023-04-24T04:46:08;11.70;;;10.80;;
35056;SDS011;21241;51.828;19.574;2023-04-24T04:49:00;12.00;;;11.10;;
35056;SDS011;21241;51.828;19.574;2023-04-24T04:51:29;12.60;;;11.60;;
35056;SDS011;21241;51.828;19.574;2023-04-24T04:53:59;12.10;;;11.30;;
35056;SDS011;21241;51.828;19.574;2023-04-24T04:56:27;12.00;;;11.10;;
35056;SDS011;21241;51.828;19.574;2023-04-24T04:58:57;12.00;;;11.10;;
35056;SDS011;21241;51.828;19.574;2023-04-24T05:01:27;12.40;;;11.40;;
35056;SDS011;21241;51.828;19.574;2023-04-24T05:03:55;11.50;;;10.70;;
35056;SDS011;21241;51.828;19.574;2023-04-24T05:06:23;12.10;;;11.20;;
35056;SDS011;21241;51.828;19.574;2023-04-24T05:08:51;12.40;;;11.40;;
35056;SDS011;21241;51.828;19.574;2023-04-24T05:11:46;12.30;;;11.10;;
35056;SDS011;21241;51.828;19.574;2023-04-24T05:14:14;11.80;;;10.80;;
35056;SDS011;21241;51.828;19.574;2023-04-24T05:16:42;11.00;;;10.10;;
35056;SDS011;21241;51.828;19.574;2023-04-24T05:19:11;11.40;;;10.60;;
35056;SDS011;21241;51.828;19.574;2023-04-24T05:21:41;10.80;;;9.90;;
35056;SDS011;21241;51.828;19.574;2023-04-24T05:24:10;11.40;;;10.60;;
35056;SDS011;21241;51.828;19.574;2023-04-24T05:27:10;11.20;;;10.30;;
35056;SDS011;21241;51.828;19.574;2023-04-24T05:29:40;10.70;;;9.90;;
35056;SDS011;21241;51.828;19.574;2023-04-24T05:32:09;11.20;;;10.20;;
35056;SDS011;21241;51.828;19.574;2023-04-24T05:34:37;11.20;;;10.30;;
35056;SDS011;21241;51.828;19.574;2023-04-24T05:37:05;11.40;;;10.60;;
35056;SDS011;21241;51.828;19.574;2023-04-24T05:39:35;11.20;;;10.40;;
35056;SDS011;21241;51.828;19.574;2023-04-24T05:42:04;11.10;;;10.00;;
35056;SDS011;21241;51.828;19.574;2023-04-24T05:44:32;12.10;;;10.90;;
35056;SDS011;21241;51.828;19.574;2023-04-24T05:46:59;11.60;;;10.60;;
35056;SDS011;21241;51.828;19.574;2023-04-24T05:49:29;10.80;;;9.90;;
35056;SDS011;21241;51.828;19.574;2023-04-24T05:51:57;11.60;;;10.50;;
35056;SDS011;21241;51.828;19.574;2023-04-24T05:54:24;11.10;;;10.00;;
35056;SDS011;21241;51.828;19.574;2023-04-24T05:56:52;11.50;;;10.40;;
35056;SDS011;21241;51.828;19.574;2023-04-24T05:59:29;10.80;;;9.80;;
35056;SDS011;21241;51.828;19.574;2023-04-24T06:01:58;15.20;;;10.40;;
35056;SDS011;21241;51.828;19.574;2023-04-24T06:04:26;10.90;;;9.80;;
35056;SDS011;21241;51.828;19.574;2023-04-24T06:06:53;9.10;;;8.30;;
35056;SDS011;21241;51.828;19.574;2023-04-24T06:09:24;9.40;;;8.40;;
35056;SDS011;21241;51.828;19.574;2023-04-24T06:11:52;12.00;;;9.10;;
35056;SDS011;21241;51.828;19.574;2023-04-24T06:14:22;9.90;;;8.30;;
35056;SDS011;21241;51.828;19.574;2023-04-24T06:17:12;9.40;;;8.50;;
35056;SDS011;21241;51.828;19.574;2023-04-24T06:19:40;8.70;;;7.90;;
35056;SDS011;21241;51.828;19.574;2023-04-24T06:22:09;8.80;;;8.10;;
35056;SDS011;21241;51.828;19.574;2023-04-24T06:24:37;8.40;;;7.70;;
35056;SDS011;21241;51.828;19.574;2023-04-24T06:27:05;8.00;;;7.30;;
35056;SDS011;21241;51.828;19.574;2023-04-24T06:29:33;8.60;;;7.80;;
35056;SDS011;21241;51.828;19.574;2023-04-24T06:32:01;8.00;;;7.30;;
35056;SDS011;21241;51.828;19.574;2023-04-24T06:34:28;8.30;;;7.60;;
35056;SDS011;21241;51.828;19.574;2023-04-24T06:36:58;8.70;;;7.90;;
35056;SDS011;21241;51.828;19.574;2023-04-24T06:39:25;9.60;;;7.60;;
35056;SDS011;21241;51.828;19.574;2023-04-24T06:41:53;9.20;;;8.00;;
35056;SDS011;21241;51.828;19.574;2023-04-24T06:44:21;8.30;;;7.50;;
35056;SDS011;21241;51.828;19.574;2023-04-24T06:46:48;8.40;;;7.60;;
35056;SDS011;21241;51.828;19.574;2023-04-24T06:49:16;10.50;;;7.10;;
35056;SDS011;21241;51.828;19.574;2023-04-24T06:51:44;8.10;;;7.30;;
35056;SDS011;21241;51.828;19.574;2023-04-24T06:54:11;7.40;;;6.90;;
35056;SDS011;21241;51.828;19.574;2023-04-24T06:56:39;8.00;;;7.30;;
35056;SDS011;21241;51.828;19.574;2023-04-24T06:59:07;8.80;;;7.90;;
35056;SDS011;21241;51.828;19.574;2023-04-24T07:01:34;8.70;;;7.50;;
35056;SDS011;21241;51.828;19.574;2023-04-24T07:04:02;8.10;;;7.40;;
35056;SDS011;21241;51.828;19.574;2023-04-24T07:06:30;8.50;;;7.30;;
35056;SDS011;21241;51.828;19.574;2023-04-24T07:08:59;7.30;;;6.50;;
35056;SDS011;21241;51.828;19.574;2023-04-24T07:11:27;10.40;;;7.00;;
35056;SDS011;21241;51.828;19.574;2023-04-24T07:13:56;7.60;;;6.90;;
35056;SDS011;21241;51.828;19.574;2023-04-24T07:16:24;7.60;;;7.00;;
35056;SDS011;21241;51.828;19.574;2023-04-24T07:18:52;7.90;;;7.20;;
35056;SDS011;21241;51.828;19.574;2023-04-24T07:21:19;7.30;;;6.60;;
35056;SDS011;21241;51.828;19.574;2023-04-24T07:23:47;7.90;;;7.20;;
35056;SDS011;21241;51.828;19.574;2023-04-24T07:26:14;8.00;;;7.30;;
35056;SDS011;21241;51.828;19.574;2023-04-24T07:28:42;9.00;;;7.40;;
35056;SDS011;21241;51.828;19.574;2023-04-24T07:31:11;8.20;;;7.40;;
35056;SDS011;21241;51.828;19.574;2023-04-24T07:33:39;8.30;;;7.70;;
35056;SDS011;21241;51.828;19.574;2023-04-24T07:36:06;8.10;;;7.30;;
35056;SDS011;21241;51.828;19.574;2023-04-24T07:38:34;8.10;;;7.40;;
35056;SDS011;21241;51.828;19.574;2023-04-24T07:41:02;7.60;;;6.90;;
35056;SDS011;21241;51.828;19.574;2023-04-24T07:43:30;8.10;;;7.20;;
35056;SDS011;21241;51.828;19.574;2023-04-24T07:45:57;7.70;;;7.20;;
35056;SDS011;21241;51.828;19.574;2023-04-24T07:48:25;7.80;;;7.20;;
35056;SDS011;21241;51.828;19.574;2023-04-24T07:50:53;8.20;;;7.40;;
35056;SDS011;21241;51.828;19.574;2023-04-24T07:53:21;9.10;;;7.40;;
35056;SDS011;21241;51.828;19.574;2023-04-24T07:55:49;8.20;;;6.90;;
35056;SDS011;21241;51.828;19.574;2023-04-24T07:58:17;6.90;;;6.40;;
35056;SDS011;21241;51.828;19.574;2023-04-24T08:00:44;9.30;;;7.90;;
35056;SDS011;21241;51.828;19.574;2023-04-24T08:03:13;6.70;;;6.10;;
35056;SDS011;21241;51.828;19.574;2023-04-24T08:05:41;6.40;;;5.90;;
35056;SDS011;21241;51.828;19.574;2023-04-24T08:08:10;6.60;;;6.00;;
35056;SDS011;21241;51.828;19.574;2023-04-24T08:10:38;6.50;;;6.00;;
35056;SDS011;21241;51.828;19.574;2023-04-24T08:13:06;6.30;;;5.60;;
35056;SDS011;21241;51.828;19.574;2023-04-24T08:15:34;8.80;;;6.70;;
35056;SDS011;21241;51.828;19.574;2023-04-24T08:18:01;8.30;;;6.00;;
35056;SDS011;21241;51.828;19.574;2023-04-24T08:20:29;6.30;;;5.70;;
35056;SDS011;21241;51.828;19.574;2023-04-24T08:22:57;6.60;;;6.00;;
35056;SDS011;21241;51.828;19.574;2023-04-24T08:25:24;6.40;;;5.80;;
35056;SDS011;21241;51.828;19.574;2023-04-24T08:27:52;7.50;;;6.70;;
35056;SDS011;21241;51.828;19.574;2023-04-24T08:30:20;6.20;;;5.70;;
35056;SDS011;21241;51.828;19.574;2023-04-24T08:32:48;7.00;;;6.30;;
35056;SDS011;21241;51.828;19.574;2023-04-24T08:35:16;8.40;;;5.80;;
35056;SDS011;21241;51.828;19.574;2023-04-24T08:37:43;6.30;;;5.80;;
35056;SDS011;21241;51.828;19.574;2023-04-24T08:40:12;6.10;;;5.60;;
35056;SDS011;21241;51.828;19.574;2023-04-24T08:42:44;6.40;;;5.70;;
35056;SDS011;21241;51.828;19.574;2023-04-24T08:45:12;6.30;;;5.60;;
35056;SDS011;21241;51.828;19.574;2023-04-24T08:47:40;6.00;;;5.50;;
35056;SDS011;21241;51.828;19.574;2023-04-24T08:50:09;6.00;;;5.60;;
35056;SDS011;21241;51.828;19.574;2023-04-24T08:52:38;5.90;;;5.30;;
35056;SDS011;21241;51.828;19.574;2023-04-24T08:55:05;5.70;;;5.20;;
35056;SDS011;21241;51.828;19.574;2023-04-24T08:57:34;6.50;;;6.00;;
35056;SDS011;21241;51.828;19.574;2023-04-24T09:00:03;6.20;;;5.70;;
35056;SDS011;21241;51.828;19.574;2023-04-24T09:02:32;5.70;;;5.20;;
35056;SDS011;21241;51.828;19.574;2023-04-24T09:05:02;5.50;;;5.10;;
35056;SDS011;21241;51.828;19.574;2023-04-24T09:07:31;5.80;;;5.40;;
35056;SDS011;21241;51.828;19.574;2023-04-24T09:10:02;5.80;;;5.30;;
35056;SDS011;21241;51.828;19.574;2023-04-24T09:12:30;6.30;;;5.70;;
35056;SDS011;21241;51.828;19.574;2023-04-24T09:14:58;5.90;;;5.30;;
35056;SDS011;21241;51.828;19.574;2023-04-24T09:17:26;5.90;;;5.50;;
35056;SDS011;21241;51.828;19.574;2023-04-24T09:19:55;6.20;;;5.40;;
35056;SDS011;21241;51.828;19.574;2023-04-24T09:22:23;6.10;;;5.50;;
35056;SDS011;21241;51.828;19.574;2023-04-24T09:24:59;6.60;;;6.00;;
35056;SDS011;21241;51.828;19.574;2023-04-24T09:27:31;6.20;;;5.60;;
35056;SDS011;21241;51.828;19.574;2023-04-24T09:29:59;8.80;;;7.10;;
35056;SDS011;21241;51.828;19.574;2023-04-24T09:32:28;6.00;;;5.50;;
35056;SDS011;21241;51.828;19.574;2023-04-24T09:37:38;5.70;;;5.30;;
35056;SDS011;21241;51.828;19.574;2023-04-24T09:40:09;5.90;;;5.40;;
35056;SDS011;21241;51.828;19.574;2023-04-24T09:42:58;6.30;;;5.70;;
35056;SDS011;21241;51.828;19.574;2023-04-24T09:45:38;6.70;;;6.00;;
35056;SDS011;21241;51.828;19.574;2023-04-24T09:48:10;5.70;;;5.30;;
35056;SDS011;21241;51.828;19.574;2023-04-24T09:50:38;5.50;;;5.10;;
35056;SDS011;21241;51.828;19.574;2023-04-24T09:53:06;6.10;;;5.70;;
35056;SDS011;21241;51.828;19.574;2023-04-24T09:55:40;5.50;;;5.10;;
35056;SDS011;21241;51.828;19.574;2023-04-24T09:58:12;6.30;;;5.50;;
35056;SDS011;21241;51.828;19.574;2023-04-24T10:00:40;6.30;;;5.70;;
35056;SDS011;21241;51.828;19.574;2023-04-24T10:03:08;5.50;;;5.00;;
35056;SDS011;21241;51.828;19.574;2023-04-24T10:05:37;6.00;;;5.60;;
35056;SDS011;21241;51.828;19.574;2023-04-24T10:08:07;6.50;;;5.90;;
35056;SDS011;21241;51.828;19.574;2023-04-24T10:10:42;6.30;;;5.90;;
35056;SDS011;21241;51.828;19.574;2023-04-24T10:13:11;6.90;;;6.30;;
35056;SDS011;21241;51.828;19.574;2023-04-24T10:15:41;6.20;;;5.70;;
35056;SDS011;21241;51.828;19.574;2023-04-24T10:18:09;6.10;;;5.60;;
35056;SDS011;21241;51.828;19.574;2023-04-24T10:20:39;6.30;;;5.80;;
35056;SDS011;21241;51.828;19.574;2023-04-24T10:23:07;7.10;;;6.00;;
35056;SDS011;21241;51.828;19.574;2023-04-24T10:25:35;6.20;;;5.60;;
35056;SDS011;21241;51.828;19.574;2023-04-24T10:28:04;6.90;;;6.10;;
35056;SDS011;21241;51.828;19.574;2023-04-24T10:30:35;6.30;;;5.80;;
35056;SDS011;21241;51.828;19.574;2023-04-24T10:33:04;6.40;;;5.80;;
35056;SDS011;21241;51.828;19.574;2023-04-24T10:35:41;6.30;;;5.80;;
35056;SDS011;21241;51.828;19.574;2023-04-24T10:38:13;7.00;;;6.50;;
35056;SDS011;21241;51.828;19.574;2023-04-24T10:40:42;6.70;;;6.20;;
35056;SDS011;21241;51.828;19.574;2023-04-24T10:43:10;7.20;;;6.50;;
35056;SDS011;21241;51.828;19.574;2023-04-24T10:46:00;7.40;;;6.70;;
35056;SDS011;21241;51.828;19.574;2023-04-24T10:48:32;7.00;;;6.30;;
35056;SDS011;21241;51.828;19.574;2023-04-24T10:51:10;5.40;;;5.10;;
35056;SDS011;21241;51.828;19.574;2023-04-24T10:53:40;6.50;;;6.00;;
35056;SDS011;21241;51.828;19.574;2023-04-24T10:56:08;6.70;;;6.10;;
35056;SDS011;21241;51.828;19.574;2023-04-24T10:58:44;6.10;;;5.60;;
35056;SDS011;21241;51.828;19.574;2023-04-24T11:01:27;6.70;;;6.20;;
35056;SDS011;21241;51.828;19.574;2023-04-24T11:03:57;6.40;;;5.90;;
35056;SDS011;21241;51.828;19.574;2023-04-24T11:06:30;6.40;;;6.00;;
35056;SDS011;21241;51.828;19.574;2023-04-24T11:09:02;6.90;;;6.30;;
35056;SDS011;21241;51.828;19.574;2023-04-24T11:11:44;7.80;;;7.00;;
35056;SDS011;21241;51.828;19.574;2023-04-24T11:14:15;8.90;;;6.60;;
35056;SDS011;21241;51.828;19.574;2023-04-24T11:21:45;6.70;;;6.20;;
35056;SDS011;21241;51.828;19.574;2023-04-24T11:24:37;7.50;;;7.00;;
35056;SDS011;21241;51.828;19.574;2023-04-24T11:27:12;7.70;;;7.10;;
35056;SDS011;21241;51.828;19.574;2023-04-24T11:29:49;7.20;;;6.70;;
35056;SDS011;21241;51.828;19.574;2023-04-24T11:34:56;7.20;;;6.70;;
35056;SDS011;21241;51.828;19.574;2023-04-24T11:37:26;7.00;;;6.50;;
35056;SDS011;21241;51.828;19.574;2023-04-24T11:39:56;6.80;;;6.30;;
35056;SDS011;21241;51.828;19.574;2023-04-24T11:42:25;6.90;;;6.50;;
35056;SDS011;21241;51.828;19.574;2023-04-24T11:44:53;7.10;;;6.50;;
35056;SDS011;21241;51.828;19.574;2023-04-24T11:47:30;7.00;;;6.40;;
35056;SDS011;21241;51.828;19.574;2023-04-24T11:49:59;7.00;;;6.50;;
35056;SDS011;21241;51.828;19.574;2023-04-24T11:52:29;6.60;;;6.10;;
35056;SDS011;21241;51.828;19.574;2023-04-24T11:54:58;7.30;;;6.70;;
35056;SDS011;21241;51.828;19.574;2023-04-24T11:57:27;7.40;;;6.70;;
35056;SDS011;21241;51.828;19.574;2023-04-24T12:00:01;6.30;;;5.80;;
35056;SDS011;21241;51.828;19.574;2023-04-24T12:02:38;6.50;;;6.00;;
35056;SDS011;21241;51.828;19.574;2023-04-24T12:05:07;6.10;;;5.70;;
35056;SDS011;21241;51.828;19.574;2023-04-24T12:07:40;6.60;;;6.10;;
35056;SDS011;21241;51.828;19.574;2023-04-24T12:10:10;7.50;;;6.10;;
35056;SDS011;21241;51.828;19.574;2023-04-24T12:12:38;7.10;;;5.70;;
35056;SDS011;21241;51.828;19.574;2023-04-24T12:15:06;7.20;;;6.60;;
35056;SDS011;21241;51.828;19.574;2023-04-24T12:17:35;5.80;;;5.30;;
35056;SDS011;21241;51.828;19.574;2023-04-24T12:20:06;6.40;;;5.80;;
35056;SDS011;21241;51.828;19.574;2023-04-24T12:22:42;6.00;;;5.50;;
35056;SDS011;21241;51.828;19.574;2023-04-24T12:25:18;5.80;;;5.50;;
35056;SDS011;21241;51.828;19.574;2023-04-24T12:27:50;5.60;;;5.20;;
35056;SDS011;21241;51.828;19.574;2023-04-24T12:30:21;6.10;;;5.70;;
35056;SDS011;21241;51.828;19.574;2023-04-24T12:32:53;5.20;;;4.70;;
35056;SDS011;21241;51.828;19.574;2023-04-24T12:35:23;4.70;;;4.30;;
35056;SDS011;21241;51.828;19.574;2023-04-24T12:37:52;12.10;;;5.80;;
35056;SDS011;21241;51.828;19.574;2023-04-24T12:40:21;5.30;;;4.90;;
35056;SDS011;21241;51.828;19.574;2023-04-24T12:42:50;5.20;;;4.90;;
35056;SDS011;21241;51.828;19.574;2023-04-24T12:45:18;5.40;;;5.10;;
35056;SDS011;21241;51.828;19.574;2023-04-24T12:47:46;5.30;;;5.00;;
35056;SDS011;21241;51.828;19.574;2023-04-24T12:50:15;5.50;;;5.10;;
35056;SDS011;21241;51.828;19.574;2023-04-24T12:52:44;5.50;;;5.10;;
35056;SDS011;21241;51.828;19.574;2023-04-24T12:55:12;5.00;;;4.60;;
35056;SDS011;21241;51.828;19.574;2023-04-24T12:57:40;6.10;;;5.50;;
35056;SDS011;21241;51.828;19.574;2023-04-24T13:00:09;6.20;;;5.60;;
35056;SDS011;21241;51.828;19.574;2023-04-24T13:02:37;5.70;;;5.20;;
35056;SDS011;21241;51.828;19.574;2023-04-24T13:05:07;8.70;;;6.00;;
35056;SDS011;21241;51.828;19.574;2023-04-24T13:07:35;5.80;;;5.30;;
35056;SDS011;21241;51.828;19.574;2023-04-24T13:10:03;5.80;;;5.30;;
35056;SDS011;21241;51.828;19.574;2023-04-24T13:12:31;6.60;;;6.00;;
35056;SDS011;21241;51.828;19.574;2023-04-24T13:14:59;5.90;;;5.40;;
35056;SDS011;21241;51.828;19.574;2023-04-24T13:17:27;5.60;;;5.20;;
35056;SDS011;21241;51.828;19.574;2023-04-24T13:19:54;5.70;;;5.20;;
35056;SDS011;21241;51.828;19.574;2023-04-24T13:22:22;5.60;;;5.20;;
35056;SDS011;21241;51.828;19.574;2023-04-24T13:24:50;6.10;;;5.60;;
35056;SDS011;21241;51.828;19.574;2023-04-24T13:27:18;6.40;;;5.90;;
35056;SDS011;21241;51.828;19.574;2023-04-24T13:29:46;6.40;;;5.90;;
35056;SDS011;21241;51.828;19.574;2023-04-24T13:32:13;6.20;;;5.70;;
35056;SDS011;21241;51.828;19.574;2023-04-24T13:34:41;6.40;;;5.80;;
35056;SDS011;21241;51.828;19.574;2023-04-24T13:37:09;17.60;;;7.40;;
35056;SDS011;21241;51.828;19.574;2023-04-24T13:39:37;6.70;;;6.10;;
35056;SDS011;21241;51.828;19.574;2023-04-24T13:42:05;6.40;;;5.90;;
35056;SDS011;21241;51.828;19.574;2023-04-24T13:44:32;6.30;;;5.80;;
35056;SDS011;21241;51.828;19.574;2023-04-24T13:47:00;6.50;;;6.00;;
35056;SDS011;21241;51.828;19.574;2023-04-24T13:49:28;7.10;;;6.40;;
35056;SDS011;21241;51.828;19.574;2023-04-24T13:51:55;7.10;;;6.60;;
35056;SDS011;21241;51.828;19.574;2023-04-24T13:54:23;7.00;;;6.50;;
35056;SDS011;21241;51.828;19.574;2023-04-24T13:56:56;6.80;;;6.20;;
35056;SDS011;21241;51.828;19.574;2023-04-24T13:59:25;6.40;;;5.80;;
35056;SDS011;21241;51.828;19.574;2023-04-24T14:01:52;6.90;;;6.30;;
35056;SDS011;21241;51.828;19.574;2023-04-24T14:04:20;6.70;;;6.20;;
35056;SDS011;21241;51.828;19.574;2023-04-24T14:06:49;6.30;;;5.80;;
35056;SDS011;21241;51.828;19.574;2023-04-24T14:09:16;6.90;;;6.20;;
35056;SDS011;21241;51.828;19.574;2023-04-24T14:11:44;6.10;;;5.40;;
35056;SDS011;21241;51.828;19.574;2023-04-24T14:14:12;6.70;;;6.20;;
35056;SDS011;21241;51.828;19.574;2023-04-24T14:16:39;6.60;;;6.00;;
35056;SDS011;21241;51.828;19.574;2023-04-24T14:19:07;7.00;;;5.80;;
35056;SDS011;21241;51.828;19.574;2023-04-24T14:21:35;6.60;;;6.10;;
35056;SDS011;21241;51.828;19.574;2023-04-24T14:24:03;6.80;;;6.10;;
35056;SDS011;21241;51.828;19.574;2023-04-24T14:26:30;6.80;;;6.30;;
35056;SDS011;21241;51.828;19.574;2023-04-24T14:28:58;7.10;;;6.40;;
35056;SDS011;21241;51.828;19.574;2023-04-24T14:31:41;7.30;;;6.60;;
35056;SDS011;21241;51.828;19.574;2023-04-24T14:34:09;7.60;;;7.00;;
35056;SDS011;21241;51.828;19.574;2023-04-24T14:36:37;7.20;;;6.70;;
35056;SDS011;21241;51.828;19.574;2023-04-24T14:39:05;7.50;;;6.80;;
35056;SDS011;21241;51.828;19.574;2023-04-24T14:41:35;7.40;;;6.90;;
35056;SDS011;21241;51.828;19.574;2023-04-24T14:44:04;7.60;;;7.00;;
35056;SDS011;21241;51.828;19.574;2023-04-24T14:46:33;7.10;;;6.50;;
35056;SDS011;21241;51.828;19.574;2023-04-24T14:49:01;7.10;;;6.30;;